Time;durP1;ratioP1;P1;durP2;ratioP2;P2;SDS_P1;SDS_P2;PMS_P1;PMS_P2;Temp;Humidity;BMP_temperature;BMP_pressure;BME280_temperature;BME280_humidity;BME280_pressure;Samples;Min_cycle;Max_cycle;Signal;HPM_P1;HPM_P2
2023/11/12 00:02:38;;;;;;;2.23;2.10;;;8.60;99.90;;;;;;10327965;28;20282;-79
2023/11/12 00:07:59;;;;;;;2.80;2.60;;;8.60;99.90;;;;;;10290666;28;20223;-79
2023/11/12 00:13:20;;;;;;;2.57;2.37;;;8.70;99.90;;;;;;10299277;28;20234;-78
2023/11/12 00:18:41;;;;;;;2.43;2.23;;;8.60;99.90;;;;;;10339708;28;20635;-79
2023/11/12 00:24:04;;;;;;;1.93;1.83;;;8.70;99.90;;;;;;10317830;28;20223;-79
2023/11/12 00:29:25;;;;;;;2.00;1.90;;;8.60;99.90;;;;;;10306342;28;20211;-78
2023/11/12 00:34:45;;;;;;;2.00;1.90;;;8.70;99.90;;;;;;10312053;28;20215;-79
2023/11/12 00:40:10;;;;;;;2.77;2.57;;;8.70;99.90;;;;;;10296254;28;20221;-79
2023/11/12 00:45:30;;;;;;;2.50;2.40;;;8.70;99.90;;;;;;10308015;28;20278;-79
2023/11/12 00:50:51;;;;;;;2.60;2.40;;;8.70;99.90;;;;;;10301473;28;20211;-77
2023/11/12 00:56:14;;;;;;;2.37;2.27;;;8.70;99.90;;;;;;10306069;28;20692;-79
2023/11/12 01:01:35;;;;;;;2.00;1.90;;;8.80;99.90;;;;;;10304301;28;20219;-78
2023/11/12 01:06:55;;;;;;;2.40;2.20;;;8.80;99.90;;;;;;10296454;28;20196;-80
2023/11/12 01:12:19;;;;;;;2.57;2.37;;;8.80;99.90;;;;;;10317396;28;20219;-78
2023/11/12 01:17:39;;;;;;;2.53;2.33;;;8.90;99.90;;;;;;10324209;28;20251;-79
2023/11/12 01:23:00;;;;;;;2.00;1.90;;;8.90;99.90;;;;;;10336003;28;20226;-78
2023/11/12 01:28:23;;;;;;;2.40;2.20;;;8.90;99.90;;;;;;10285877;28;20219;-78
2023/11/12 01:33:44;;;;;;;2.30;2.20;;;9.00;99.90;;;;;;10313133;28;20235;-79
2023/11/12 01:39:07;;;;;;;2.57;2.37;;;9.00;99.90;;;;;;10293603;28;20584;-79
2023/11/12 01:44:29;;;;;;;1.97;1.87;;;9.00;99.90;;;;;;10314347;28;20702;-79
2023/11/12 01:49:50;;;;;;;2.80;2.50;;;9.00;99.90;;;;;;10294292;28;20260;-79
2023/11/12 01:55:12;;;;;;;2.10;2.00;;;9.10;99.90;;;;;;10315608;28;20203;-79
2023/11/12 02:00:34;;;;;;;2.00;1.90;;;9.00;99.90;;;;;;10326228;28;20219;-79
2023/11/12 02:05:55;;;;;;;3.23;2.93;;;9.00;99.90;;;;;;10283622;28;20665;-79
2023/11/12 02:11:16;;;;;;;2.70;2.17;;;9.00;99.90;;;;;;10310998;28;20220;-79
2023/11/12 02:16:38;;;;;;;1.83;1.73;;;8.90;99.90;;;;;;10307637;28;20207;-79
2023/11/12 02:21:58;;;;;;;2.10;2.00;;;9.00;99.90;;;;;;10314716;28;20232;-77
2023/11/12 02:27:20;;;;;;;2.10;1.90;;;9.00;99.90;;;;;;10309446;28;20198;-78
2023/11/12 02:32:41;;;;;;;2.00;1.90;;;8.90;99.90;;;;;;10297617;28;20207;-78
2023/11/12 02:38:02;;;;;;;2.03;1.70;;;9.00;99.90;;;;;;10296522;28;20207;-78
2023/11/12 02:43:25;;;;;;;1.87;1.77;;;9.00;99.90;;;;;;10293069;28;20298;-78
2023/11/12 02:49:03;;;;;;;4.83;1.70;;;9.00;99.90;;;;;;10301193;28;20310;-78
2023/11/12 02:54:25;;;;;;;1.90;1.80;;;9.10;99.90;;;;;;10305301;28;20220;-79
2023/11/12 02:59:47;;;;;;;1.87;1.77;;;9.10;99.90;;;;;;10323037;28;20191;-78
2023/11/12 03:05:08;;;;;;;1.77;1.60;;;9.00;99.90;;;;;;10281319;28;20200;-78
2023/11/12 03:10:29;;;;;;;2.10;2.00;;;9.00;99.90;;;;;;10326127;28;20592;-78
2023/11/12 03:15:51;;;;;;;2.67;1.60;;;8.80;99.90;;;;;;10277415;28;20211;-78
2023/11/12 03:21:12;;;;;;;3.20;2.00;;;8.70;99.90;;;;;;10283313;28;20706;-77
2023/11/12 03:26:33;;;;;;;1.70;1.60;;;8.60;99.90;;;;;;10322074;28;20318;-78
2023/11/12 03:31:55;;;;;;;3.33;1.93;;;8.40;99.90;;;;;;10317154;28;20219;-78
2023/11/12 03:37:15;;;;;;;2.37;2.00;;;8.30;99.90;;;;;;10302645;28;20200;-78
2023/11/12 03:42:37;;;;;;;2.10;2.00;;;8.10;99.90;;;;;;10327597;28;20235;-77
2023/11/12 03:47:59;;;;;;;2.20;1.80;;;8.00;99.90;;;;;;10306277;28;20700;-78
2023/11/12 03:53:19;;;;;;;1.90;1.80;;;7.80;99.90;;;;;;10322052;28;20219;-78
2023/11/12 03:58:40;;;;;;;2.20;2.10;;;7.80;99.90;;;;;;10318357;28;20202;-77
2023/11/12 04:04:02;;;;;;;2.50;2.20;;;7.70;99.90;;;;;;10311903;28;20259;-78
2023/11/12 04:09:22;;;;;;;3.27;2.07;;;7.70;99.90;;;;;;10299362;28;20219;-77
2023/11/12 04:14:43;;;;;;;2.13;2.03;;;7.70;99.90;;;;;;10300094;28;20231;-78
2023/11/12 04:20:07;;;;;;;2.10;2.00;;;7.70;99.90;;;;;;10321580;28;20194;-77
2023/11/12 04:25:28;;;;;;;2.40;2.23;;;7.70;99.90;;;;;;10314474;28;20200;-78
2023/11/12 04:30:48;;;;;;;2.50;2.17;;;7.60;99.90;;;;;;10306234;28;20231;-77
2023/11/12 04:36:12;;;;;;;2.10;2.00;;;7.60;99.90;;;;;;10303284;28;20630;-77
2023/11/12 04:41:34;;;;;;;2.00;1.90;;;7.60;99.90;;;;;;10326407;28;20254;-78
2023/11/12 04:46:54;;;;;;;2.23;2.13;;;7.60;99.90;;;;;;10298384;28;20203;-77
2023/11/12 04:52:16;;;;;;;2.10;2.00;;;7.50;99.90;;;;;;10335802;28;20650;-77
2023/11/12 04:57:37;;;;;;;1.80;1.70;;;7.50;99.90;;;;;;10293198;28;20208;-78
2023/11/12 05:02:57;;;;;;;2.00;1.90;;;7.50;99.90;;;;;;10293946;28;20303;-78
2023/11/12 05:08:19;;;;;;;2.10;2.00;;;7.50;99.90;;;;;;10333016;28;20303;-77
2023/11/12 05:13:40;;;;;;;2.30;2.20;;;7.50;99.90;;;;;;10327554;28;20287;-76
2023/11/12 05:19:01;;;;;;;12.43;9.80;;;7.50;99.90;;;;;;10302219;28;20191;-78
2023/11/12 05:24:23;;;;;;;3.70;3.40;;;7.50;99.90;;;;;;10325498;28;20228;-78
2023/11/12 05:29:43;;;;;;;2.60;2.50;;;7.60;99.90;;;;;;10305477;28;20219;-78
2023/11/12 05:35:04;;;;;;;3.20;3.00;;;7.60;99.90;;;;;;10320714;28;20207;-78
2023/11/12 05:40:26;;;;;;;3.10;2.90;;;7.60;99.90;;;;;;10308726;28;20306;-78
2023/11/12 05:45:46;;;;;;;3.63;3.40;;;7.60;99.90;;;;;;10315692;28;20204;-78
2023/11/12 05:51:08;;;;;;;2.80;2.70;;;7.60;99.90;;;;;;10312556;28;20223;-78
2023/11/12 05:56:30;;;;;;;3.47;3.27;;;7.60;99.90;;;;;;10311848;28;20200;-77
2023/11/12 06:01:51;;;;;;;3.73;3.43;;;7.60;99.90;;;;;;10316418;28;20270;-78
2023/11/12 06:07:12;;;;;;;4.30;4.00;;;7.50;99.90;;;;;;10305784;28;20203;-78
2023/11/12 06:12:34;;;;;;;3.40;3.10;;;7.50;99.90;;;;;;10320606;28;20309;-78
2023/11/12 06:17:54;;;;;;;3.40;3.20;;;7.50;99.90;;;;;;10301340;28;20204;-78
2023/11/12 06:23:15;;;;;;;3.63;3.33;;;7.40;99.90;;;;;;10326481;28;20239;-78
2023/11/12 06:28:37;;;;;;;3.40;3.20;;;7.50;99.90;;;;;;10296490;28;20219;-77
2023/11/12 06:33:57;;;;;;;3.70;3.40;;;7.50;99.90;;;;;;10327855;28;20716;-78
2023/11/12 06:39:18;;;;;;;4.30;3.50;;;7.50;99.90;;;;;;10291380;28;20669;-78
2023/11/12 06:44:40;;;;;;;3.30;3.00;;;7.50;99.90;;;;;;10330263;28;20222;-78
2023/11/12 06:50:00;;;;;;;7.33;3.60;;;7.50;99.90;;;;;;10300280;28;20318;-78
2023/11/12 06:55:21;;;;;;;3.73;3.43;;;7.60;99.90;;;;;;10330999;28;20616;-78
2023/11/12 07:00:43;;;;;;;2.90;2.70;;;7.60;99.90;;;;;;10306040;28;20207;-78
2023/11/12 07:06:05;;;;;;;3.00;2.80;;;7.70;99.90;;;;;;10328807;28;20208;-78
2023/11/12 07:11:25;;;;;;;3.80;3.50;;;7.70;99.90;;;;;;10309116;28;20223;-78
2023/11/12 07:16:47;;;;;;;3.30;3.10;;;7.70;99.90;;;;;;10324709;28;20576;-78
2023/11/12 07:22:09;;;;;;;3.50;3.30;;;7.80;99.90;;;;;;10314350;28;20710;-78
2023/11/12 07:27:31;;;;;;;3.17;2.97;;;7.90;99.90;;;;;;10315847;28;20199;-77
2023/11/12 07:32:52;;;;;;;3.20;3.00;;;8.00;99.90;;;;;;10318265;28;20243;-79
2023/11/12 07:38:12;;;;;;;3.43;3.23;;;8.10;99.90;;;;;;10315175;28;20733;-79
2023/11/12 07:43:33;;;;;;;4.60;4.20;;;8.20;99.90;;;;;;10321311;28;20218;-78
2023/11/12 07:48:55;;;;;;;4.77;4.37;;;8.20;99.90;;;;;;10310284;28;20661;-78
2023/11/12 07:54:16;;;;;;;4.57;4.23;;;8.30;99.90;;;;;;10325754;28;20251;-78
2023/11/12 07:59:36;;;;;;;4.00;3.80;;;8.40;99.90;;;;;;10309103;28;20196;-78
2023/11/12 08:04:58;;;;;;;3.80;3.50;;;8.40;99.90;;;;;;10337692;28;20219;-78
2023/11/12 08:10:21;;;;;;;4.03;3.80;;;8.40;99.90;;;;;;10291438;28;20232;-79
2023/11/12 08:15:41;;;;;;;3.67;3.37;;;8.40;99.90;;;;;;10337273;28;20203;-78
2023/11/12 08:21:04;;;;;;;4.80;4.40;;;8.50;99.90;;;;;;10298282;28;20223;-79
2023/11/12 08:26:27;;;;;;;3.00;2.80;;;8.60;99.90;;;;;;10298132;28;20207;-79
2023/11/12 08:31:48;;;;;;;3.80;3.60;;;8.70;99.90;;;;;;10334649;28;20227;-78
2023/11/12 08:37:10;;;;;;;4.17;3.77;;;8.80;99.90;;;;;;10330004;28;20208;-78
2023/11/12 08:42:30;;;;;;;3.20;2.90;;;8.90;99.90;;;;;;10304466;28;20207;-78
2023/11/12 08:47:51;;;;;;;3.40;3.20;;;9.00;99.90;;;;;;10334616;28;20204;-78
2023/11/12 08:53:13;;;;;;;4.90;3.03;;;9.00;99.90;;;;;;10308761;28;20258;-78
2023/11/12 08:58:33;;;;;;;4.53;3.30;;;9.00;99.90;;;;;;10320003;28;20188;-78
2023/11/12 09:03:54;;;;;;;3.87;3.53;;;9.00;99.90;;;;;;10305980;28;20215;-77
2023/11/12 09:09:17;;;;;;;3.60;3.30;;;9.10;99.90;;;;;;10303257;28;20302;-78
2023/11/12 09:14:38;;;;;;;3.83;3.53;;;9.10;99.90;;;;;;10314660;28;20262;-78
2023/11/12 09:19:58;;;;;;;3.73;3.43;;;9.10;99.90;;;;;;10310143;28;20188;-77
2023/11/12 09:25:20;;;;;;;4.27;3.40;;;9.10;99.90;;;;;;10319514;28;20533;-77
2023/11/12 09:30:41;;;;;;;7.70;3.90;;;9.10;99.90;;;;;;10305707;28;20224;-78
2023/11/12 09:36:01;;;;;;;5.93;5.33;;;9.00;99.90;;;;;;10323100;28;20218;-77
2023/11/12 09:41:23;;;;;;;4.27;3.90;;;9.00;99.90;;;;;;10301441;28;20690;-77
2023/11/12 09:46:46;;;;;;;5.60;5.10;;;9.00;99.90;;;;;;10327169;28;20285;-77
2023/11/12 09:52:07;;;;;;;3.67;3.47;;;8.90;99.90;;;;;;10295694;28;20224;-78
2023/11/12 09:57:29;;;;;;;4.40;4.10;;;9.00;99.90;;;;;;10332392;28;20694;-77
2023/11/12 10:02:49;;;;;;;4.00;3.70;;;9.10;99.90;;;;;;10293812;28;20331;-77
2023/11/12 10:08:12;;;;;;;4.30;3.33;;;9.30;99.90;;;;;;10332703;28;20223;-78
2023/11/12 10:13:37;;;;;;;2.80;2.70;;;9.40;99.90;;;;;;10327006;28;20547;-78
2023/11/12 10:19:10;;;;;;;2.97;2.87;;;9.70;99.90;;;;;;10284310;28;20677;-78
2023/11/12 10:24:41;;;;;;;3.20;2.90;;;9.70;99.90;;;;;;10320614;28;20737;-78
2023/11/12 10:30:19;;;;;;;3.50;3.20;;;9.80;99.90;;;;;;10312387;28;20215;-78
2023/11/12 10:35:40;;;;;;;3.50;3.20;;;9.80;99.90;;;;;;10305767;28;20204;-79
2023/11/12 10:41:02;;;;;;;5.33;3.77;;;9.80;99.90;;;;;;10320817;28;20302;-79
2023/11/12 10:46:26;;;;;;;3.27;3.00;;;9.90;99.90;;;;;;10323132;28;20572;-78
2023/11/12 10:51:48;;;;;;;4.23;3.13;;;10.00;99.90;;;;;;10311705;28;20223;-78
2023/11/12 10:57:09;;;;;;;3.57;2.83;;;10.10;99.90;;;;;;10332592;28;20203;-77
2023/11/12 11:02:32;;;;;;;3.20;3.00;;;10.10;99.90;;;;;;10340888;28;20249;-78
2023/11/12 11:07:53;;;;;;;5.13;2.90;;;10.20;99.90;;;;;;10305356;28;20204;-78
2023/11/12 11:13:14;;;;;;;3.10;2.83;;;10.20;99.90;;;;;;10316880;28;20230;-78
2023/11/12 11:18:50;;;;;;;3.10;2.90;;;10.30;99.90;;;;;;10336127;28;20199;-78
2023/11/12 11:24:30;;;;;;;4.87;3.10;;;10.40;99.90;;;;;;10291818;28;20231;-78
2023/11/12 11:30:09;;;;;;;3.53;2.97;;;10.40;99.90;;;;;;10329190;28;20211;-78
2023/11/12 11:35:31;;;;;;;2.83;2.63;;;10.50;99.90;;;;;;10322248;28;20461;-78
2023/11/12 11:40:56;;;;;;;3.13;2.93;;;10.50;99.90;;;;;;10306300;28;20211;-77
2023/11/12 11:46:18;;;;;;;2.90;2.70;;;10.50;99.90;;;;;;10318833;28;20282;-77
2023/11/12 11:51:45;;;;;;;6.07;2.87;;;10.60;99.90;;;;;;10310772;28;20219;-78
2023/11/12 11:57:06;;;;;;;3.60;3.30;;;10.60;99.90;;;;;;10317209;28;20640;-77
2023/11/12 12:02:28;;;;;;;3.27;2.97;;;10.70;99.90;;;;;;10318284;28;20230;-78
2023/11/12 12:08:00;;;;;;;3.47;3.17;;;10.70;99.90;;;;;;10311456;28;20199;-77
2023/11/12 12:13:22;;;;;;;3.50;2.87;;;10.80;99.90;;;;;;10307758;28;20220;-77
2023/11/12 12:18:44;;;;;;;3.83;3.30;;;10.90;99.90;;;;;;10326444;28;20206;-78
2023/11/12 12:24:06;;;;;;;4.27;3.87;;;10.90;99.90;;;;;;10304048;28;20310;-75
2023/11/12 12:29:27;;;;;;;3.97;3.67;;;10.90;99.90;;;;;;10330595;28;20203;-78
2023/11/12 12:34:56;;;;;;;3.20;3.00;;;10.90;99.90;;;;;;10298874;28;20685;-78
2023/11/12 12:40:27;;;;;;;3.93;3.63;;;10.80;99.90;;;;;;10335852;28;20458;-78
2023/11/12 12:45:56;;;;;;;3.33;3.13;;;10.80;99.90;;;;;;10300549;28;20271;-78
2023/11/12 12:51:18;;;;;;;3.03;2.83;;;10.80;99.90;;;;;;10347578;28;20219;-77
2023/11/12 12:56:39;;;;;;;3.27;2.97;;;10.80;99.90;;;;;;10326576;28;20184;-78
2023/11/12 13:01:59;;;;;;;2.90;2.70;;;10.90;99.90;;;;;;10305263;28;20634;-78
2023/11/12 13:07:21;;;;;;;2.53;2.33;;;11.00;99.90;;;;;;10322555;28;20286;-78
2023/11/12 13:12:43;;;;;;;3.47;3.00;;;11.00;99.90;;;;;;10308453;28;20274;-78
2023/11/12 13:18:04;;;;;;;3.17;2.97;;;11.00;99.90;;;;;;10318648;28;20704;-77
2023/11/12 13:23:27;;;;;;;3.40;3.20;;;11.00;99.90;;;;;;10313801;28;20223;-77
2023/11/12 13:28:49;;;;;;;3.13;2.93;;;11.10;99.90;;;;;;10313793;28;20196;-79
2023/11/12 13:34:10;;;;;;;3.03;2.83;;;11.00;99.90;;;;;;10317755;28;20717;-78
2023/11/12 13:39:32;;;;;;;2.97;2.77;;;10.90;99.90;;;;;;10308049;28;20195;-78
2023/11/12 13:44:53;;;;;;;2.90;2.53;;;10.70;99.90;;;;;;10303434;28;20228;-78
2023/11/12 13:50:13;;;;;;;2.90;2.70;;;10.60;99.90;;;;;;10322619;28;20219;-77
2023/11/12 13:55:37;;;;;;;3.00;2.80;;;10.60;99.90;;;;;;10308584;28;20196;-77
2023/11/12 14:00:57;;;;;;;3.23;3.03;;;10.60;99.90;;;;;;10327792;28;20700;-78
2023/11/12 14:06:19;;;;;;;3.53;3.23;;;10.50;99.90;;;;;;10295681;28;20203;-78
2023/11/12 14:11:41;;;;;;;3.20;3.00;;;10.40;99.90;;;;;;10303073;28;20223;-78
2023/11/12 14:17:07;;;;;;;3.20;3.00;;;10.40;99.90;;;;;;10295062;28;20564;-76
2023/11/12 14:22:28;;;;;;;2.77;2.53;;;10.40;99.90;;;;;;10335390;28;20218;-77
2023/11/12 14:27:50;;;;;;;3.27;3.07;;;10.30;99.90;;;;;;10328762;28;20654;-77
2023/11/12 14:33:11;;;;;;;3.47;3.27;;;10.30;99.90;;;;;;10300979;28;20211;-77
2023/11/12 14:38:32;;;;;;;3.33;3.13;;;10.20;99.90;;;;;;10323336;28;20199;-76
2023/11/12 14:43:54;;;;;;;2.93;2.73;;;10.20;99.90;;;;;;10311648;28;20218;-76
2023/11/12 14:49:15;;;;;;;2.63;2.50;;;10.10;99.90;;;;;;10324637;28;20199;-77
2023/11/12 14:54:35;;;;;;;2.47;2.37;;;10.00;99.90;;;;;;10316080;28;20232;-78
2023/11/12 14:59:58;;;;;;;3.10;2.90;;;9.80;99.90;;;;;;10312608;28;20199;-78
2023/11/12 15:05:18;;;;;;;3.30;3.10;;;9.80;99.90;;;;;;10333897;28;20269;-78
2023/11/12 15:10:39;;;;;;;3.10;2.90;;;9.70;99.90;;;;;;10311221;28;20224;-78
2023/11/12 15:16:01;;;;;;;4.30;4.00;;;9.70;99.90;;;;;;10323137;28;20195;-78
2023/11/12 15:21:22;;;;;;;10.77;9.83;;;9.50;99.90;;;;;;10312881;28;20228;-78
2023/11/12 15:26:45;;;;;;;5.53;5.23;;;9.50;99.90;;;;;;10316368;28;20286;-78
2023/11/12 15:32:08;;;;;;;4.50;4.30;;;9.40;99.90;;;;;;10293947;28;20224;-79
2023/11/12 15:37:28;;;;;;;4.40;4.10;;;9.30;99.90;;;;;;10334106;28;20207;-79
2023/11/12 15:42:50;;;;;;;5.73;5.50;;;9.10;99.90;;;;;;10288935;28;20768;-77
2023/11/12 15:48:12;;;;;;;5.80;5.60;;;9.00;99.90;;;;;;10323278;28;20223;-79
2023/11/12 15:53:33;;;;;;;5.93;5.60;;;8.80;99.90;;;;;;10298126;28;20223;-78
2023/11/12 15:58:53;;;;;;;6.10;5.87;;;8.80;99.90;;;;;;10308248;28;20692;-78
2023/11/12 16:04:16;;;;;;;6.10;5.70;;;8.70;99.90;;;;;;10337369;28;20219;-79
2023/11/12 16:09:37;;;;;;;6.53;6.33;;;8.60;99.90;;;;;;10338040;28;20222;-79
2023/11/12 16:14:58;;;;;;;6.70;6.30;;;8.50;99.90;;;;;;10337085;28;20230;-78
2023/11/12 16:20:20;;;;;;;7.47;7.17;;;8.40;99.90;;;;;;10336887;28;20202;-78
2023/11/12 16:25:41;;;;;;;7.60;7.30;;;8.30;99.90;;;;;;10332381;28;20219;-79
2023/11/12 16:31:03;;;;;;;7.10;6.80;;;8.30;99.90;;;;;;10338479;28;20314;-79
2023/11/12 16:36:25;;;;;;;7.70;7.40;;;;;;;;;;10341068;28;20199;-78
2023/11/12 16:41:46;;;;;;;6.80;6.47;;;;;;;;;;10344867;28;20235;-78
2023/11/12 16:47:08;;;;;;;7.80;7.50;;;;;;;;;;10343351;28;20211;-78
2023/11/12 16:52:30;;;;;;;7.10;6.70;;;;;;;;;;10330188;28;20227;-77
2023/11/12 16:57:51;;;;;;;8.03;7.43;;;;;;;;;;10333880;28;20199;-77
2023/11/12 17:03:12;;;;;;;8.20;7.80;;;;;;;;;;10333194;28;20280;-78
2023/11/12 17:08:34;;;;;;;7.83;7.50;;;;;;;;;;10330094;28;20203;-78
2023/11/12 17:13:55;;;;;;;17.83;16.10;;;;;;;;;;10333434;28;20258;-78
2023/11/12 17:19:16;;;;;;;9.20;8.60;;;;;;;;;;10333695;28;20227;-78
2023/11/12 17:24:38;;;;;;;7.23;6.93;;;;;;;;;;10333217;28;20230;-78
2023/11/12 17:29:59;;;;;;;8.40;7.90;;;;;;;;;;10335549;28;20238;-78
2023/11/12 17:35:20;;;;;;;7.80;7.40;;;;;;;;;;10328028;28;20199;-77
2023/11/12 17:40:43;;;;;;;7.70;7.40;;;;;;;;;;10336805;28;20306;-78
2023/11/12 17:46:08;;;;;;;8.10;7.70;;;;;;;;;;10321460;28;20207;-77
2023/11/12 17:51:29;;;;;;;8.43;7.93;;;;;;;;;;10339467;28;20222;-78
2023/11/12 17:56:51;;;;;;;8.00;7.60;;;;;;;;;;10333581;28;20245;-78
2023/11/12 18:02:13;;;;;;;8.00;7.70;;;;;;;;;;10326688;28;20227;-78
2023/11/12 18:07:34;;;;;;;7.53;7.13;;;;;;;;;;10317183;28;20203;-78
2023/11/12 18:12:58;;;;;;;7.30;7.00;;;;;;;;;;10320714;28;20227;-78
2023/11/12 18:18:19;;;;;;;7.13;6.83;;;;;;;;;;10330278;28;20214;-78
2023/11/12 18:23:40;;;;;;;7.53;7.13;;;;;;;;;;10328804;28;20227;-74
2023/11/12 18:29:03;;;;;;;8.77;8.27;;;;;;;;;;10314143;28;20277;-78
2023/11/12 18:34:24;;;;;;;17.70;15.90;;;;;;;;;;10322180;28;20277;-78
2023/11/12 18:39:45;;;;;;;17.23;15.63;;;;;;;;;;10328634;28;20681;-76
2023/11/12 18:45:07;;;;;;;14.23;12.93;;;;;;;;;;10311063;28;20755;-74
2023/11/12 18:50:28;;;;;;;12.83;11.73;;;;;;;;;;10319385;28;20235;-77
2023/11/12 18:55:49;;;;;;;12.53;11.53;;;;;;;;;;10332417;28;20203;-77
2023/11/12 19:01:12;;;;;;;11.90;11.00;;;;;;;;;;10332911;28;20215;-77
2023/11/12 19:06:37;;;;;;;17.60;15.90;;;;;;;;;;10321341;28;20199;-77
2023/11/12 19:11:58;;;;;;;11.07;10.27;;;;;;;;;;10315039;28;20227;-78
2023/11/12 19:17:21;;;;;;;9.53;8.93;;;;;;;;;;10312958;28;20199;-78
2023/11/12 19:22:42;;;;;;;10.30;9.60;;;;;;;;;;10304394;28;20222;-78
2023/11/12 19:28:03;;;;;;;11.77;10.67;;;;;;;;;;10324081;28;20195;-78
2023/11/12 19:33:25;;;;;;;9.33;8.53;;;;;;;;;;10300362;28;20226;-76
2023/11/12 19:38:46;;;;;;;9.30;8.70;;;;;;;;;;10330638;28;20203;-76
2023/11/12 19:44:08;;;;;;;9.60;8.90;;;;;;;;;;10302827;28;20219;-78
2023/11/12 19:49:30;;;;;;;9.90;9.30;;;;;;;;;;10312191;28;20203;-76
2023/11/12 19:54:51;;;;;;;15.00;13.80;;;;;;;;;;10294776;28;20227;-78
2023/11/12 20:00:12;;;;;;;12.37;11.27;;;;;;;;;;10310776;28;20203;-78
2023/11/12 20:05:37;;;;;;;13.67;12.47;;;;;;;;;;10314130;28;20195;-78
2023/11/12 20:11:00;;;;;;;10.13;9.43;;;;;;;;;;10304980;28;20215;-77
2023/11/12 20:16:21;;;;;;;14.30;12.83;;;;;;;;;;10318826;28;20207;-78
2023/11/12 20:21:45;;;;;;;11.57;10.77;;;;;;;;;;10326076;28;20223;-76
2023/11/12 20:27:08;;;;;;;11.60;10.80;;;;;;;;;;10316247;28;20256;-78
2023/11/12 20:32:29;;;;;;;11.90;11.00;;;;;;;;;;10295510;28;20223;-78
2023/11/12 20:37:51;;;;;;;12.80;11.90;;;;;;;;;;10333380;28;20281;-77
2023/11/12 20:43:12;;;;;;;13.07;12.10;;;;;;;;;;10287168;28;20232;-77
2023/11/12 20:48:33;;;;;;;12.33;11.43;;;;;;;;;;10291658;28;20199;-77
2023/11/12 20:53:56;;;;;;;12.63;11.73;;;;;;;;;;10318713;28;20878;-78
2023/11/12 20:59:20;;;;;;;11.33;10.53;;;;;;;;;;10327456;28;20646;-78
2023/11/12 21:04:41;;;;;;;12.73;11.13;;;;;;;;;;10280825;28;20307;-76
2023/11/12 21:10:05;;;;;;;11.30;10.50;;;;;;;;;;10318560;28;20275;-75
2023/11/12 21:15:27;;;;;;;11.50;10.70;;;;;;;;;;10285373;28;20226;-77
2023/11/12 21:20:48;;;;;;;11.53;10.60;;;;;;;;;;10326908;28;20235;-78
2023/11/12 21:26:14;;;;;;;11.87;11.07;;;;;;;;;;10310294;28;20223;-78
2023/11/12 21:31:34;;;;;;;12.40;11.50;;;;;;;;;;10312124;28;20678;-76
2023/11/12 21:36:56;;;;;;;13.27;12.27;;;;;;;;;;10309212;28;20204;-76
2023/11/12 21:42:18;;;;;;;12.83;11.83;;;;;;;;;;10316220;28;20219;-78
2023/11/12 21:47:39;;;;;;;15.13;13.90;;;;;;;;;;10275752;28;20207;-78
2023/11/12 21:53:00;;;;;;;13.50;12.40;;;;;;;;;;10304748;28;20230;-78
2023/11/12 21:58:23;;;;;;;13.30;12.30;;;;;;;;;;10300226;28;20208;-78
2023/11/12 22:03:44;;;;;;;12.87;11.97;;;;;;;;;;10324263;28;20215;-77
2023/11/12 22:09:10;;;;;;;12.30;11.40;;;;;;;;;;10295072;28;20211;-77
2023/11/12 22:14:32;;;;;;;12.30;11.30;;;;;;;;;;10327969;28;20215;-77
2023/11/12 22:19:53;;;;;;;12.70;11.80;;;;;;;;;;10296065;28;20199;-77
2023/11/12 22:25:14;;;;;;;12.40;11.50;;;;;;;;;;10305036;28;20191;-78
2023/11/12 22:30:38;;;;;;;12.63;11.73;;;;;;;;;;10346928;28;20202;-78
2023/11/12 22:36:00;;;;;;;11.80;10.90;;;;;;;;;;10339720;28;20223;-78
2023/11/12 22:41:21;;;;;;;15.17;13.90;;;;;;;;;;10300895;28;20218;-78
2023/11/12 22:46:46;;;;;;;14.60;13.40;;;;;;;;;;10320290;28;20203;-77
2023/11/12 22:52:07;;;;;;;11.83;10.93;;;;;;;;;;10318477;28;20718;-77
2023/11/12 22:57:31;;;;;;;14.00;12.90;;;;;;;;;;10327957;28;20207;-77
2023/11/12 23:02:53;;;;;;;14.03;12.93;;;;;;;;;;10321824;28;20219;-78
2023/11/12 23:08:14;;;;;;;14.30;13.30;;;;;;;;;;10322628;28;20263;-76
2023/11/12 23:13:35;;;;;;;14.90;13.73;;;;;;;;;;10326123;28;20219;-77
2023/11/12 23:18:57;;;;;;;14.20;13.00;;;;;;;;;;10320129;28;20199;-78
2023/11/12 23:24:18;;;;;;;15.07;13.83;;;;;;;;;;10329703;28;20231;-78
2023/11/12 23:29:44;;;;;;;14.87;13.73;;;;;;;;;;10299221;28;20604;-79
2023/11/12 23:35:08;;;;;;;15.27;14.10;;;;;;;;;;10316347;28;20238;-77
2023/11/12 23:40:29;;;;;;;14.00;13.00;;;;;;;;;;10302507;28;20322;-78
2023/11/12 23:45:49;;;;;;;14.07;13.13;;;;;;;;;;10333290;28;20203;-78
2023/11/12 23:51:12;;;;;;;14.27;12.97;;;;;;;;;;10298514;28;20657;-74
2023/11/12 23:56:33;;;;;;;14.70;13.60;;;;;;;;;;10296284;28;20208;-78
